createdAt,value
2018-07-23T00:01:43.997Z,99.90
2018-07-23T00:04:12.455Z,99.90
2018-07-23T00:06:40.834Z,99.90
2018-07-23T00:09:09.261Z,99.90
2018-07-23T00:11:37.777Z,99.90
2018-07-23T00:14:06.176Z,99.90
2018-07-23T00:16:34.733Z,99.90
2018-07-23T00:19:03.124Z,99.90
2018-07-23T00:21:31.557Z,99.90
2018-07-23T00:23:59.995Z,99.90
2018-07-23T00:26:28.413Z,99.90
2018-07-23T00:28:56.861Z,99.90
2018-07-23T00:31:25.304Z,99.90
2018-07-23T00:33:53.715Z,99.90
2018-07-23T00:36:22.174Z,99.90
2018-07-23T00:38:50.620Z,99.90
2018-07-23T00:41:19.085Z,99.90
2018-07-23T00:43:47.537Z,99.90
2018-07-23T00:46:16.004Z,99.90
2018-07-23T00:48:44.678Z,99.90
2018-07-23T00:51:13.068Z,99.90
2018-07-23T00:53:41.502Z,99.90
2018-07-23T00:56:10.068Z,99.90
2018-07-23T00:58:38.494Z,99.90
2018-07-23T01:01:06.933Z,99.90
2018-07-23T01:03:35.641Z,99.90
2018-07-23T01:06:04.009Z,99.90
2018-07-23T01:08:32.364Z,99.90
2018-07-23T01:11:00.778Z,99.90
2018-07-23T01:13:29.189Z,99.90
2018-07-23T01:15:57.602Z,99.90
2018-07-23T01:18:26.021Z,99.90
2018-07-23T01:20:54.440Z,99.90
2018-07-23T01:23:22.804Z,99.90
2018-07-23T01:25:51.408Z,99.90
2018-07-23T01:28:19.773Z,99.90
2018-07-23T01:30:48.172Z,99.90
2018-07-23T01:33:16.930Z,99.90
2018-07-23T01:35:45.329Z,99.90
2018-07-23T01:38:14.346Z,99.90
2018-07-23T01:40:42.729Z,99.90
2018-07-23T01:43:11.114Z,99.90
2018-07-23T01:45:39.713Z,99.90
2018-07-23T01:48:08.280Z,99.90
2018-07-23T01:50:36.752Z,99.90
2018-07-23T01:53:05.402Z,99.90
2018-07-23T01:55:33.869Z,99.90
2018-07-23T01:58:02.258Z,99.90
2018-07-23T02:00:30.739Z,99.90
2018-07-23T02:02:59.191Z,99.90
2018-07-23T02:05:27.669Z,99.90
2018-07-23T02:07:56.257Z,99.90
2018-07-23T02:10:24.664Z,99.90
2018-07-23T02:12:53.118Z,99.90
2018-07-23T02:15:21.836Z,99.90
2018-07-23T02:17:50.320Z,99.90
2018-07-23T02:20:18.761Z,99.90
2018-07-23T02:22:47.257Z,99.90
2018-07-23T02:25:15.658Z,99.90
2018-07-23T02:27:44.497Z,99.90
2018-07-23T02:30:12.913Z,99.90
2018-07-23T02:32:41.365Z,99.90
2018-07-23T02:35:09.885Z,99.90
2018-07-23T02:37:38.264Z,99.90
2018-07-23T02:40:06.940Z,99.90
2018-07-23T02:42:35.389Z,99.90
2018-07-23T02:45:03.841Z,99.90
2018-07-23T02:47:32.287Z,99.90
2018-07-23T02:52:28.833Z,99.90
2018-07-23T02:54:58.134Z,99.90
2018-07-23T02:57:26.617Z,99.90
2018-07-23T02:59:55.278Z,99.90
2018-07-23T03:02:23.733Z,99.90
2018-07-23T03:04:52.129Z,99.90
2018-07-23T03:07:20.677Z,99.90
2018-07-23T03:09:49.063Z,99.90
2018-07-23T03:12:17.478Z,99.90
2018-07-23T03:14:46.135Z,99.90
2018-07-23T03:17:14.786Z,99.90
2018-07-23T03:19:43.167Z,99.90
2018-07-23T03:22:11.602Z,99.90
2018-07-23T03:24:40.021Z,99.90
2018-07-23T03:27:08.522Z,99.90
2018-07-23T03:29:36.953Z,99.90
2018-07-23T03:32:05.505Z,99.90
2018-07-23T03:34:33.910Z,99.90
2018-07-23T03:37:02.309Z,99.90
2018-07-23T03:39:31.022Z,99.90
2018-07-23T03:41:59.397Z,99.90
2018-07-23T03:44:27.782Z,99.90
2018-07-23T03:46:56.359Z,99.90
2018-07-23T03:49:24.769Z,99.90
2018-07-23T03:51:53.153Z,99.90
2018-07-23T03:54:21.581Z,99.90
2018-07-23T03:56:49.963Z,99.90
2018-07-23T03:59:18.385Z,99.90
2018-07-23T04:01:46.781Z,99.90
2018-07-23T04:04:17.032Z,99.90
2018-07-23T04:06:47.058Z,99.90
2018-07-23T04:09:15.560Z,99.90
2018-07-23T04:11:45.473Z,99.90
2018-07-23T04:14:14.349Z,99.90
2018-07-23T04:16:42.806Z,99.90
2018-07-23T04:19:11.186Z,99.90
2018-07-23T04:21:39.801Z,99.90
2018-07-23T04:24:08.212Z,99.90
2018-07-23T04:26:36.612Z,99.90
2018-07-23T04:29:05.341Z,99.90
2018-07-23T04:31:33.789Z,99.90
2018-07-23T04:34:02.210Z,99.90
2018-07-23T04:36:30.820Z,99.90
2018-07-23T04:38:59.261Z,99.90
2018-07-23T04:41:27.680Z,99.90
2018-07-23T04:43:56.314Z,99.90
2018-07-23T04:46:24.749Z,99.90
2018-07-23T04:48:53.114Z,99.90
2018-07-23T04:51:21.509Z,99.90
2018-07-23T04:53:50.081Z,99.90
2018-07-23T04:56:18.453Z,99.90
2018-07-23T04:58:46.829Z,99.90
2018-07-23T05:01:15.305Z,99.90
2018-07-23T05:03:43.758Z,99.90
2018-07-23T05:06:12.382Z,99.90
2018-07-23T05:08:40.879Z,99.90
2018-07-23T05:11:09.246Z,99.90
2018-07-23T05:13:37.669Z,99.90
2018-07-23T05:16:06.220Z,99.90
2018-07-23T05:18:34.567Z,99.90
2018-07-23T05:21:03.031Z,99.90
2018-07-23T05:23:31.409Z,99.90
2018-07-23T05:25:59.804Z,99.90
2018-07-23T05:28:28.269Z,99.90
2018-07-23T05:30:56.903Z,99.90
2018-07-23T05:33:25.301Z,99.90
2018-07-23T05:35:53.732Z,99.90
2018-07-23T05:38:22.362Z,99.90
2018-07-23T05:40:50.749Z,98.50
2018-07-23T05:43:19.196Z,97.90
2018-07-23T05:45:47.648Z,96.20
2018-07-23T05:48:16.034Z,96.60
2018-07-23T05:50:45.382Z,96.80
2018-07-23T05:53:14.054Z,94.70
2018-07-23T05:55:42.444Z,94.70
2018-07-23T05:58:10.881Z,95.40
2018-07-23T06:00:39.430Z,95.60
2018-07-23T06:03:07.824Z,95.70
2018-07-23T06:05:36.305Z,95.90
2018-07-23T06:08:04.906Z,94.30
2018-07-23T06:10:33.336Z,93.00
2018-07-23T06:13:01.831Z,93.80
2018-07-23T06:15:30.282Z,93.70
2018-07-23T06:17:58.770Z,92.60
2018-07-23T06:20:27.182Z,93.60
2018-07-23T06:22:55.593Z,94.70
2018-07-23T06:25:24.041Z,95.60
2018-07-23T06:27:53.081Z,96.10
2018-07-23T06:30:21.552Z,94.20
2018-07-23T06:32:49.949Z,93.10
2018-07-23T06:35:18.489Z,90.70
2018-07-23T06:37:46.913Z,86.50
2018-07-23T06:40:15.637Z,87.30
2018-07-23T06:42:44.221Z,87.80
2018-07-23T06:45:12.657Z,82.70
2018-07-23T06:47:41.112Z,80.60
2018-07-23T06:50:09.565Z,76.80
2018-07-23T06:52:37.994Z,76.50
2018-07-23T06:55:06.767Z,73.80
2018-07-23T06:57:35.133Z,75.10
2018-07-23T07:00:03.695Z,79.90
2018-07-23T07:02:32.153Z,82.00
2018-07-23T07:05:01.596Z,81.80
2018-07-23T07:07:30.283Z,83.20
2018-07-23T07:12:33.821Z,86.00
2018-07-23T07:15:02.194Z,90.00
2018-07-23T07:17:30.604Z,90.40
2018-07-23T07:19:59.304Z,92.00
2018-07-23T07:22:27.669Z,93.40
2018-07-23T07:24:56.082Z,93.90
2018-07-23T07:27:24.819Z,94.40
2018-07-23T07:29:53.192Z,93.30
2018-07-23T07:32:21.577Z,93.10
2018-07-23T07:34:50.024Z,93.50
2018-07-23T07:37:18.384Z,93.30
2018-07-23T07:39:46.949Z,93.20
2018-07-23T07:42:15.765Z,93.00
2018-07-23T07:44:44.140Z,93.70
2018-07-23T07:47:12.741Z,93.40
2018-07-23T07:49:41.117Z,93.00
2018-07-23T07:52:09.497Z,93.20
2018-07-23T07:54:37.937Z,94.00
2018-07-23T07:57:06.374Z,95.30
2018-07-23T07:59:34.957Z,95.00
2018-07-23T08:02:03.337Z,95.30
2018-07-23T08:04:31.684Z,95.70
2018-07-23T08:07:00.245Z,96.00
2018-07-23T08:09:28.610Z,95.90
2018-07-23T08:14:25.357Z,96.50
2018-07-23T08:16:53.787Z,97.40
2018-07-23T08:19:22.166Z,98.50
2018-07-23T08:21:50.637Z,98.00
2018-07-23T08:24:19.089Z,97.30
2018-07-23T08:26:47.501Z,97.90
2018-07-23T08:29:16.085Z,97.30
2018-07-23T08:31:44.495Z,96.30
2018-07-23T08:34:12.904Z,95.40
2018-07-23T08:36:41.342Z,95.60
2018-07-23T08:39:10.949Z,96.90
2018-07-23T08:41:39.569Z,97.20
2018-07-23T08:44:08.780Z,97.40
2018-07-23T08:46:37.216Z,96.80
2018-07-23T08:49:05.740Z,96.30
2018-07-23T08:51:34.394Z,96.30
2018-07-23T08:54:02.877Z,95.60
2018-07-23T08:56:31.322Z,94.90
2018-07-23T08:58:59.926Z,94.90
2018-07-23T09:01:28.308Z,95.30
2018-07-23T09:03:56.729Z,94.50
2018-07-23T09:06:25.387Z,93.90
2018-07-23T09:08:53.774Z,92.10
2018-07-23T09:11:22.187Z,90.90
2018-07-23T09:13:50.628Z,91.20
2018-07-23T09:16:20.041Z,91.70
2018-07-23T09:18:48.437Z,91.40
2018-07-23T09:21:16.804Z,90.00
2018-07-23T09:23:46.440Z,90.00
2018-07-23T09:26:14.789Z,90.30
2018-07-23T09:28:43.181Z,89.80
2018-07-23T09:31:11.782Z,90.60
2018-07-23T09:33:40.153Z,91.50
2018-07-23T09:36:08.537Z,91.00
2018-07-23T09:38:37.014Z,91.80
2018-07-23T09:41:05.541Z,90.70
2018-07-23T09:43:33.949Z,90.60
2018-07-23T09:46:02.397Z,89.00
2018-07-23T09:48:30.957Z,86.70
2018-07-23T09:50:59.393Z,85.60
2018-07-23T09:53:27.798Z,85.30
2018-07-23T09:55:56.460Z,85.70
2018-07-23T09:58:24.837Z,86.30
2018-07-23T10:00:57.981Z,80.40
2018-07-23T10:03:26.609Z,80.20
2018-07-23T10:05:54.980Z,80.40
2018-07-23T10:08:23.532Z,84.30
2018-07-23T10:10:51.963Z,84.20
2018-07-23T10:13:20.403Z,84.30
2018-07-23T10:15:48.833Z,84.70
2018-07-23T10:20:46.289Z,85.80
2018-07-23T10:23:14.718Z,85.40
2018-07-23T10:25:43.357Z,85.90
2018-07-23T10:28:11.760Z,84.40
2018-07-23T10:30:40.113Z,83.70
2018-07-23T10:33:08.528Z,82.90
2018-07-23T10:35:36.918Z,80.50
2018-07-23T10:38:05.446Z,79.80
2018-07-23T10:40:34.089Z,80.00
2018-07-23T10:43:02.433Z,79.60
2018-07-23T10:45:30.794Z,79.40
2018-07-23T10:47:59.384Z,77.40
2018-07-23T10:50:27.761Z,77.90
2018-07-23T10:52:56.143Z,77.90
2018-07-23T10:55:24.560Z,76.50
2018-07-23T10:57:52.961Z,77.60
2018-07-23T11:00:21.481Z,80.00
2018-07-23T11:02:49.904Z,79.50
2018-07-23T11:05:18.335Z,78.00
2018-07-23T11:07:46.925Z,76.60
2018-07-23T11:10:15.305Z,76.80
2018-07-23T11:12:43.699Z,76.70
2018-07-23T11:15:12.406Z,76.50
2018-07-23T11:17:40.806Z,76.60
2018-07-23T11:20:11.327Z,75.90
2018-07-23T11:22:40.703Z,75.60
2018-07-23T11:25:38.701Z,72.60
2018-07-23T11:27:37.618Z,73.40
2018-07-23T11:30:06.349Z,73.90
2018-07-23T11:32:35.492Z,72.90
2018-07-23T11:35:03.909Z,74.50
2018-07-23T11:37:32.837Z,75.50
2018-07-23T11:40:01.227Z,72.10
2018-07-23T11:42:29.725Z,73.00
2018-07-23T11:44:58.326Z,71.70
2018-07-23T11:47:26.706Z,70.70
2018-07-23T11:49:55.111Z,70.90
2018-07-23T11:52:23.633Z,72.50
2018-07-23T11:54:52.034Z,72.50
2018-07-23T11:57:20.421Z,70.70
2018-07-23T11:59:48.973Z,71.40
2018-07-23T12:02:17.407Z,71.20
2018-07-23T12:04:46.592Z,70.70
2018-07-23T12:07:15.105Z,71.40
2018-07-23T12:09:43.933Z,71.90
2018-07-23T12:12:12.343Z,72.40
2018-07-23T12:14:41.066Z,72.70
2018-07-23T12:17:09.529Z,72.50
2018-07-23T12:19:37.895Z,72.90
2018-07-23T12:24:34.481Z,70.60
2018-07-23T12:27:02.949Z,70.40
2018-07-23T12:29:31.298Z,70.90
2018-07-23T12:31:59.696Z,71.10
2018-07-23T12:34:28.122Z,70.30
2018-07-23T12:36:56.553Z,70.70
2018-07-23T12:39:25.163Z,70.90
2018-07-23T12:41:53.526Z,71.20
2018-07-23T12:44:22.020Z,72.60
2018-07-23T12:46:50.658Z,72.10
2018-07-23T12:49:19.053Z,71.10
2018-07-23T12:51:48.421Z,71.60
2018-07-23T12:54:17.333Z,70.10
2018-07-23T12:56:45.910Z,71.00
2018-07-23T13:01:42.633Z,69.70
2018-07-23T13:04:11.029Z,69.90
2018-07-23T13:06:39.430Z,70.30
2018-07-23T13:09:10.338Z,70.60
2018-07-23T13:11:38.973Z,70.90
2018-07-23T13:14:07.406Z,70.50
2018-07-23T13:16:36.149Z,70.90
2018-07-23T13:19:04.960Z,71.90
2018-07-23T13:21:33.509Z,72.10
2018-07-23T13:24:02.209Z,70.40
2018-07-23T13:26:30.589Z,70.20
2018-07-23T13:28:59.020Z,70.00
2018-07-23T13:31:27.417Z,70.60
2018-07-23T13:33:55.814Z,69.70
2018-07-23T13:36:24.419Z,70.70
2018-07-23T13:38:52.830Z,70.70
2018-07-23T13:41:21.221Z,70.20
2018-07-23T13:43:49.654Z,71.50
2018-07-23T13:46:18.262Z,71.70
2018-07-23T13:48:47.524Z,73.50
2018-07-23T13:51:15.942Z,72.50
2018-07-23T13:53:44.538Z,71.00
2018-07-23T13:56:12.897Z,71.40
2018-07-23T13:58:41.276Z,70.40
2018-07-23T14:01:09.884Z,69.00
2018-07-23T14:03:38.256Z,70.40
2018-07-23T14:06:06.691Z,68.50
2018-07-23T14:08:35.247Z,68.60
2018-07-23T14:11:03.629Z,69.20
2018-07-23T14:13:31.987Z,69.80
2018-07-23T14:16:00.712Z,70.40
2018-07-23T14:18:29.103Z,70.40
2018-07-23T14:20:57.495Z,70.00
2018-07-23T14:23:26.049Z,70.20
2018-07-23T14:25:54.412Z,69.90
2018-07-23T14:28:22.829Z,69.60
2018-07-23T14:30:51.464Z,69.80
2018-07-23T14:33:19.861Z,69.30
2018-07-23T14:35:48.229Z,69.80
2018-07-23T14:38:16.786Z,68.80
2018-07-23T14:40:45.145Z,68.90
2018-07-23T14:43:13.600Z,69.60
2018-07-23T14:45:42.175Z,69.20
2018-07-23T14:48:11.441Z,68.50
2018-07-23T14:50:39.847Z,68.20
2018-07-23T14:53:08.513Z,67.90
2018-07-23T14:55:36.904Z,67.10
2018-07-23T14:58:05.284Z,67.10
2018-07-23T15:00:33.888Z,67.90
2018-07-23T15:03:02.269Z,67.90
2018-07-23T15:05:30.679Z,68.00
2018-07-23T15:07:59.087Z,67.50
2018-07-23T15:10:27.481Z,67.80
2018-07-23T15:12:55.910Z,68.60
2018-07-23T15:17:52.385Z,69.70
2018-07-23T15:20:20.847Z,69.90
2018-07-23T15:22:49.237Z,69.90
2018-07-23T15:25:18.245Z,70.60
2018-07-23T15:27:46.655Z,70.50
2018-07-23T15:30:15.293Z,70.90
2018-07-23T15:32:43.667Z,70.90
2018-07-23T15:35:12.065Z,71.00
2018-07-23T15:37:40.601Z,71.50
2018-07-23T15:40:09.010Z,71.50
2018-07-23T15:42:37.977Z,72.30
2018-07-23T15:45:06.501Z,72.50
2018-07-23T15:47:35.046Z,71.80
2018-07-23T15:50:03.445Z,72.10
2018-07-23T15:52:31.825Z,72.40
2018-07-23T15:55:00.429Z,72.80
2018-07-23T15:57:28.832Z,72.90
2018-07-23T15:59:57.233Z,72.10
2018-07-23T16:02:25.912Z,72.40
2018-07-23T16:04:54.296Z,71.70
2018-07-23T16:07:22.653Z,71.40
2018-07-23T16:12:19.344Z,72.20
2018-07-23T16:14:48.540Z,72.80
2018-07-23T16:17:17.090Z,73.00
2018-07-23T16:19:45.468Z,72.50
2018-07-23T16:22:13.832Z,72.10
2018-07-23T16:24:42.444Z,72.10
2018-07-23T16:27:10.816Z,71.70
2018-07-23T16:29:39.179Z,71.90
2018-07-23T16:32:07.876Z,72.60
2018-07-23T16:34:36.236Z,72.60
2018-07-23T16:37:04.634Z,72.70
2018-07-23T16:39:33.016Z,72.50
2018-07-23T16:42:01.439Z,73.30
2018-07-23T16:44:29.868Z,73.20
2018-07-23T16:46:58.258Z,73.10
2018-07-23T16:49:26.680Z,73.50
2018-07-23T16:51:55.172Z,73.80
2018-07-23T16:54:23.601Z,74.20
2018-07-23T16:56:52.025Z,73.60
2018-07-23T16:59:20.644Z,73.20
2018-07-23T17:01:48.984Z,73.10
2018-07-23T17:06:46.494Z,73.80
2018-07-23T17:09:14.916Z,73.90
2018-07-23T17:11:43.295Z,74.00
2018-07-23T17:14:11.675Z,74.40
2018-07-23T17:16:40.078Z,74.40
2018-07-23T17:19:08.421Z,74.10
2018-07-23T17:21:36.952Z,74.60
2018-07-23T17:24:05.357Z,74.70
2018-07-23T17:26:33.698Z,74.30
2018-07-23T17:29:02.332Z,74.80
2018-07-23T17:31:30.717Z,74.60
2018-07-23T17:33:59.120Z,75.00
2018-07-23T17:36:27.520Z,74.60
2018-07-23T17:38:55.949Z,74.50
2018-07-23T17:41:24.344Z,74.20
2018-07-23T17:43:52.893Z,74.10
2018-07-23T17:46:21.301Z,74.00
2018-07-23T17:48:49.932Z,74.20
2018-07-23T17:51:18.592Z,74.80
2018-07-23T17:53:46.968Z,74.10
2018-07-23T17:56:15.333Z,74.30
2018-07-23T17:58:43.940Z,74.10
2018-07-23T18:01:12.617Z,74.20
2018-07-23T18:03:40.980Z,73.90
2018-07-23T18:06:09.548Z,73.90
2018-07-23T18:08:37.913Z,74.20
2018-07-23T18:11:06.266Z,74.20
2018-07-23T18:13:34.843Z,74.30
2018-07-23T18:16:03.228Z,74.20
2018-07-23T18:18:31.625Z,73.90
2018-07-23T18:21:00.321Z,73.80
2018-07-23T18:23:28.716Z,74.00
2018-07-23T18:25:57.086Z,73.80
2018-07-23T18:28:25.513Z,73.50
2018-07-23T18:30:53.881Z,73.40
2018-07-23T18:33:22.319Z,73.40
2018-07-23T18:35:50.700Z,73.60
2018-07-23T18:38:20.063Z,73.30
2018-07-23T18:40:48.440Z,73.30
2018-07-23T18:43:16.788Z,73.40
2018-07-23T18:45:45.183Z,73.60
2018-07-23T18:48:25.785Z,73.40
2018-07-23T18:50:54.224Z,73.10
2018-07-23T18:53:23.009Z,73.40
2018-07-23T18:55:51.535Z,73.70
2018-07-23T18:58:20.204Z,74.00
2018-07-23T19:00:48.564Z,74.50
2018-07-23T19:03:17.130Z,74.80
2018-07-23T19:05:45.506Z,75.20
2018-07-23T19:08:13.885Z,75.50
2018-07-23T19:10:42.428Z,75.50
2018-07-23T19:13:10.804Z,75.90
2018-07-23T19:15:39.136Z,76.50
2018-07-23T19:18:07.724Z,76.80
2018-07-23T19:20:36.139Z,77.00
2018-07-23T19:23:04.444Z,77.10
2018-07-23T19:25:32.997Z,77.40
2018-07-23T19:28:01.429Z,77.50
2018-07-23T19:30:29.800Z,78.00
2018-07-23T19:32:58.171Z,78.10
2018-07-23T19:35:26.584Z,78.50
2018-07-23T19:37:54.968Z,78.80
2018-07-23T19:40:23.340Z,79.00
2018-07-23T19:42:51.920Z,79.40
2018-07-23T19:45:20.361Z,80.00
2018-07-23T19:47:48.862Z,81.00
2018-07-23T19:50:17.144Z,81.10
2018-07-23T19:52:45.693Z,81.10
2018-07-23T19:55:14.073Z,81.40
2018-07-23T19:57:42.506Z,81.60
2018-07-23T20:00:10.838Z,82.80
2018-07-23T20:02:39.228Z,82.20
2018-07-23T20:05:07.673Z,82.80
2018-07-23T20:07:36.013Z,83.30
2018-07-23T20:10:04.813Z,83.60
2018-07-23T20:12:33.185Z,83.90
2018-07-23T20:15:01.589Z,84.60
2018-07-23T20:17:29.948Z,84.70
2018-07-23T20:19:58.328Z,85.50
2018-07-23T20:22:26.705Z,85.80
2018-07-23T20:24:55.260Z,85.90
2018-07-23T20:27:23.620Z,86.50
2018-07-23T20:29:51.981Z,87.30
2018-07-23T20:32:20.536Z,87.90
2018-07-23T20:34:49.598Z,88.10
2018-07-23T20:37:18.008Z,87.80
2018-07-23T20:39:46.556Z,88.40
2018-07-23T20:42:14.920Z,88.90
2018-07-23T20:44:43.275Z,89.00
2018-07-23T20:47:11.656Z,89.00
2018-07-23T20:49:40.008Z,89.80
2018-07-23T20:52:08.540Z,90.10
2018-07-23T20:54:36.880Z,90.00
2018-07-23T20:57:05.316Z,90.40
2018-07-23T20:59:33.904Z,90.30
2018-07-23T21:02:02.315Z,90.40
2018-07-23T21:04:30.720Z,90.70
2018-07-23T21:06:59.297Z,90.90
2018-07-23T21:09:27.708Z,91.10
2018-07-23T21:11:56.064Z,91.20
2018-07-23T21:14:24.464Z,91.40
2018-07-23T21:16:52.837Z,91.70
2018-07-23T21:19:21.191Z,91.90
2018-07-23T21:21:49.592Z,92.20
2018-07-23T21:24:18.021Z,92.70
2018-07-23T21:26:46.553Z,93.00
2018-07-23T21:29:14.932Z,93.40
2018-07-23T21:31:43.347Z,93.70
2018-07-23T21:34:11.893Z,94.30
2018-07-23T21:36:40.284Z,94.40
2018-07-23T21:39:09.435Z,94.80
2018-07-23T21:41:38.151Z,95.20
2018-07-23T21:44:06.540Z,95.50
2018-07-23T21:46:34.924Z,95.90
2018-07-23T21:51:31.671Z,96.50
2018-07-23T21:54:00.089Z,96.80
2018-07-23T21:56:29.260Z,97.10
2018-07-23T21:58:57.957Z,97.50
2018-07-23T22:01:26.348Z,97.70
2018-07-23T22:03:54.900Z,98.10
2018-07-23T22:06:23.676Z,98.20
2018-07-23T22:08:53.773Z,98.60
2018-07-23T22:11:22.270Z,98.90
2018-07-23T22:13:51.640Z,99.20
2018-07-23T22:16:20.089Z,99.70
2018-07-23T22:18:48.521Z,99.90
2018-07-23T22:21:17.040Z,99.90
2018-07-23T22:23:45.468Z,99.90
2018-07-23T22:26:13.841Z,99.90
2018-07-23T22:28:42.291Z,99.90
2018-07-23T22:31:10.702Z,99.90
2018-07-23T22:33:39.092Z,99.90
2018-07-23T22:36:07.529Z,99.90
2018-07-23T22:38:36.145Z,99.90
2018-07-23T22:41:04.507Z,99.90
2018-07-23T22:43:32.925Z,99.90
2018-07-23T22:46:01.476Z,99.90
2018-07-23T22:48:29.848Z,99.90
2018-07-23T22:50:58.244Z,99.90
2018-07-23T22:53:26.678Z,99.90
2018-07-23T22:55:55.097Z,99.90
2018-07-23T22:58:23.688Z,99.90
2018-07-23T23:00:52.961Z,99.90
2018-07-23T23:03:21.309Z,99.90
2018-07-23T23:05:49.841Z,99.90
2018-07-23T23:08:18.408Z,99.90
2018-07-23T23:10:46.812Z,99.90
2018-07-23T23:13:15.192Z,99.90
2018-07-23T23:15:43.568Z,99.90
2018-07-23T23:18:11.968Z,99.90
2018-07-23T23:20:40.516Z,99.90
2018-07-23T23:23:08.908Z,99.90
2018-07-23T23:25:37.341Z,99.90
2018-07-23T23:28:06.057Z,99.90
2018-07-23T23:30:34.421Z,99.90
2018-07-23T23:33:02.852Z,99.90
2018-07-23T23:35:31.421Z,99.90
2018-07-23T23:37:59.784Z,99.90
2018-07-23T23:40:28.132Z,99.90
2018-07-23T23:42:56.519Z,99.90
2018-07-23T23:45:25.450Z,99.90
2018-07-23T23:47:53.828Z,99.90
2018-07-23T23:50:23.140Z,99.90
2018-07-23T23:52:51.720Z,99.90
2018-07-23T23:55:20.061Z,99.90
2018-07-23T23:57:48.428Z,99.90
